Time;durP1;ratioP1;P1;durP2;ratioP2;P2;SDS_P1;SDS_P2;PMS_P1;PMS_P2;Temp;Humidity;BMP_temperature;BMP_pressure;BME280_temperature;BME280_humidity;BME280_pressure;Samples;Min_cycle;Max_cycle;Signal;HPM_P1;HPM_P2
2022/04/08 00:02:03;;;;;;;5.17;2.00;;;10.30;64.70;;;;;;5041011;28;20438;-76
2022/04/08 00:04:30;;;;;;;4.40;2.57;;;10.20;64.20;;;;;;5043073;28;20447;-76
2022/04/08 00:06:56;;;;;;;7.23;1.97;;;10.20;64.20;;;;;;5032537;28;20503;-78
2022/04/08 00:09:22;;;;;;;7.63;1.77;;;10.20;64.20;;;;;;5029187;28;20438;-76
2022/04/08 00:11:48;;;;;;;11.33;2.43;;;10.20;63.70;;;;;;5030237;28;20432;-75
2022/04/08 00:14:14;;;;;;;6.93;1.67;;;10.20;64.10;;;;;;5034653;28;20458;-76
2022/04/08 00:16:39;;;;;;;4.33;1.63;;;10.20;63.50;;;;;;5043400;28;20200;-78
2022/04/08 00:19:05;;;;;;;9.43;1.93;;;10.20;63.40;;;;;;5053908;28;20177;-77
2022/04/08 00:21:32;;;;;;;4.30;1.70;;;10.20;63.50;;;;;;5058375;28;20233;-79
2022/04/08 00:23:57;;;;;;;5.67;1.87;;;10.20;63.40;;;;;;5050496;28;20440;-77
2022/04/08 00:26:23;;;;;;;3.77;1.50;;;10.10;62.90;;;;;;5046118;28;20533;-78
2022/04/08 00:28:49;;;;;;;8.37;1.93;;;10.10;62.60;;;;;;5030478;28;20672;-78
2022/04/08 00:31:15;;;;;;;5.80;1.80;;;10.10;62.50;;;;;;5031219;28;20617;-78
2022/04/08 00:33:41;;;;;;;3.50;1.63;;;10.10;62.00;;;;;;5043609;28;20460;-78
2022/04/08 00:36:06;;;;;;;5.60;1.90;;;10.20;61.20;;;;;;5033368;28;20197;-79
2022/04/08 00:38:32;;;;;;;10.30;2.13;;;10.20;61.50;;;;;;5031540;28;20213;-79
2022/04/08 00:40:59;;;;;;;2.60;1.30;;;10.10;61.90;;;;;;5033395;28;20230;-78
2022/04/08 00:43:45;;;;;;;7.80;2.47;;;10.10;62.20;;;;;;5030743;28;20428;-78
2022/04/08 00:46:10;;;;;;;6.20;1.60;;;10.20;62.30;;;;;;5031101;28;20460;-78
2022/04/08 00:48:37;;;;;;;4.67;1.93;;;10.10;62.80;;;;;;5029802;28;20424;-78
2022/04/08 00:51:06;;;;;;;4.27;1.43;;;10.10;62.80;;;;;;5044508;28;20321;-77
2022/04/08 00:53:35;;;;;;;3.80;1.73;;;10.10;63.20;;;;;;5030567;28;20459;-78
2022/04/08 00:56:02;;;;;;;6.43;2.07;;;10.00;63.20;;;;;;5034048;28;20445;-77
2022/04/08 00:58:30;;;;;;;10.33;3.20;;;10.00;63.50;;;;;;5033755;28;20416;-78
2022/04/08 01:00:56;;;;;;;7.67;1.77;;;10.10;63.90;;;;;;5034532;28;20759;-78
2022/04/08 01:03:21;;;;;;;5.90;1.83;;;10.10;63.90;;;;;;5039322;28;20426;-78
2022/04/08 01:05:47;;;;;;;7.60;1.60;;;10.10;64.10;;;;;;5036113;28;20200;-77
2022/04/08 01:08:14;;;;;;;10.33;2.00;;;10.10;64.20;;;;;;5041331;28;20588;-78
2022/04/08 01:10:41;;;;;;;10.13;2.40;;;10.10;64.20;;;;;;5042327;28;20423;-78
2022/04/08 01:13:07;;;;;;;5.43;2.03;;;10.00;64.10;;;;;;5037346;28;20518;-77
2022/04/08 01:15:33;;;;;;;3.50;1.60;;;10.00;64.20;;;;;;5032799;28;20455;-76
2022/04/08 01:17:58;;;;;;;3.37;1.70;;;10.00;64.40;;;;;;5034298;28;20714;-77
2022/04/08 01:20:25;;;;;;;5.33;2.10;;;10.00;64.70;;;;;;5039084;28;20189;-77
2022/04/08 01:22:50;;;;;;;7.63;1.80;;;10.00;64.20;;;;;;5033543;28;20181;-78
2022/04/08 01:25:16;;;;;;;4.73;1.90;;;10.00;64.70;;;;;;5032074;28;20486;-79
2022/04/08 01:27:42;;;;;;;5.93;1.90;;;9.90;63.90;;;;;;5031849;28;20192;-77
2022/04/08 01:30:12;;;;;;;6.27;1.77;;;9.90;63.70;;;;;;5042663;28;20625;-78
2022/04/08 01:32:38;;;;;;;3.57;1.67;;;9.90;63.70;;;;;;5038898;28;20434;-78
2022/04/08 01:35:04;;;;;;;4.37;1.60;;;9.90;63.70;;;;;;5033177;28;20463;-77
2022/04/08 01:37:30;;;;;;;5.60;1.80;;;9.90;63.50;;;;;;5032637;28;20427;-78
2022/04/08 01:39:56;;;;;;;4.83;1.90;;;9.90;63.40;;;;;;5032870;28;20966;-78
2022/04/08 01:42:24;;;;;;;7.37;2.17;;;9.80;63.40;;;;;;5031564;28;20470;-78
2022/04/08 01:44:51;;;;;;;5.53;1.87;;;9.80;63.80;;;;;;5033212;28;20200;-78
2022/04/08 01:47:16;;;;;;;2.60;1.60;;;9.80;64.10;;;;;;5033018;28;21118;-78
2022/04/08 01:49:42;;;;;;;3.73;2.63;;;9.70;64.20;;;;;;5032666;28;20447;-76
2022/04/08 01:52:08;;;;;;;7.20;2.13;;;9.80;64.50;;;;;;5032693;28;20194;-77
2022/04/08 01:54:34;;;;;;;4.73;2.13;;;9.70;64.50;;;;;;5032423;28;20218;-77
2022/04/08 01:56:59;;;;;;;3.70;1.63;;;9.80;64.80;;;;;;5032195;28;20251;-77
2022/04/08 01:59:25;;;;;;;5.37;1.67;;;9.70;65.10;;;;;;5031969;28;20377;-77
2022/04/08 02:01:51;;;;;;;2.00;1.60;;;9.70;65.30;;;;;;5028993;28;20184;-77
2022/04/08 02:04:17;;;;;;;4.27;1.50;;;9.70;65.70;;;;;;5032342;28;20229;-76
2022/04/08 02:06:43;;;;;;;4.50;1.70;;;9.60;65.60;;;;;;5027303;28;20191;-77
2022/04/08 02:09:09;;;;;;;6.57;1.80;;;9.60;65.80;;;;;;5041532;28;20530;-77
2022/04/08 02:11:36;;;;;;;7.50;1.83;;;9.60;66.00;;;;;;5030351;28;20251;-76
2022/04/08 02:14:05;;;;;;;3.33;1.40;;;9.60;65.70;;;;;;5036960;28;20459;-77
2022/04/08 02:16:31;;;;;;;8.13;1.80;;;9.60;65.60;;;;;;5031011;28;20519;-77
2022/04/08 02:18:57;;;;;;;4.50;1.60;;;9.50;65.40;;;;;;5038319;28;20429;-76
2022/04/08 02:21:23;;;;;;;6.43;1.50;;;9.50;65.10;;;;;;5036190;28;20193;-76
2022/04/08 02:23:50;;;;;;;5.47;1.60;;;9.60;65.00;;;;;;5022717;28;20420;-76
2022/04/08 02:26:16;;;;;;;5.50;2.30;;;9.50;65.00;;;;;;5040045;28;20447;-77
2022/04/08 02:28:46;;;;;;;3.90;2.23;;;9.50;64.50;;;;;;5036585;28;20420;-77
2022/04/08 02:31:12;;;;;;;2.43;1.67;;;9.50;64.80;;;;;;5041885;28;20429;-77
2022/04/08 02:33:38;;;;;;;4.50;1.63;;;9.40;65.00;;;;;;5048704;28;20942;-77
2022/04/08 02:36:06;;;;;;;6.93;1.60;;;9.40;65.10;;;;;;5050669;28;20497;-76
2022/04/08 02:38:32;;;;;;;2.60;1.40;;;9.40;65.10;;;;;;5028426;28;20432;-77
2022/04/08 02:40:58;;;;;;;5.00;1.63;;;9.40;65.40;;;;;;5029476;28;20939;-77
2022/04/08 02:43:24;;;;;;;8.40;1.93;;;9.40;65.40;;;;;;5032193;28;20424;-76
2022/04/08 02:45:50;;;;;;;6.03;1.67;;;9.40;65.60;;;;;;5031339;28;20452;-77
2022/04/08 02:48:16;;;;;;;2.50;1.40;;;9.40;65.60;;;;;;5030802;28;20770;-77
2022/04/08 02:50:42;;;;;;;3.27;1.70;;;9.50;65.70;;;;;;5036977;28;20452;-78
2022/04/08 02:53:08;;;;;;;4.50;1.40;;;9.50;65.60;;;;;;5035019;28;20426;-76
2022/04/08 02:55:35;;;;;;;6.97;1.60;;;9.40;66.00;;;;;;5034280;28;20967;-79
2022/04/08 02:58:04;;;;;;;4.03;1.50;;;9.40;65.80;;;;;;5036591;28;20423;-77
2022/04/08 03:00:30;;;;;;;8.40;2.13;;;9.40;66.30;;;;;;5035472;28;20450;-77
2022/04/08 03:02:56;;;;;;;7.23;1.70;;;9.50;66.30;;;;;;5031338;28;20490;-76
2022/04/08 03:05:22;;;;;;;3.20;1.80;;;9.50;66.30;;;;;;5033988;28;20836;-76
2022/04/08 03:07:47;;;;;;;6.00;1.70;;;9.50;66.10;;;;;;5037572;28;20176;-78
2022/04/08 03:10:14;;;;;;;4.90;1.47;;;9.40;66.30;;;;;;5037183;28;20842;-75
2022/04/08 03:12:40;;;;;;;6.20;1.60;;;9.40;66.30;;;;;;5039858;28;20264;-78
2022/04/08 03:15:07;;;;;;;4.47;2.50;;;9.30;66.30;;;;;;5031926;28;20882;-78
2022/04/08 03:17:34;;;;;;;5.27;1.60;;;9.30;66.30;;;;;;5036122;28;20701;-77
2022/04/08 03:19:59;;;;;;;6.70;2.30;;;9.20;66.30;;;;;;5049324;28;20547;-78
2022/04/08 03:22:25;;;;;;;6.43;2.40;;;9.10;66.10;;;;;;5044196;28;20522;-76
2022/04/08 03:24:51;;;;;;;3.60;1.90;;;9.10;66.90;;;;;;5034484;28;20208;-77
2022/04/08 03:27:18;;;;;;;2.90;1.30;;;9.10;66.70;;;;;;5042889;28;20686;-78
2022/04/08 03:29:44;;;;;;;4.63;1.57;;;9.00;66.30;;;;;;5043643;28;21211;-77
2022/04/08 03:32:11;;;;;;;4.63;1.97;;;9.00;66.10;;;;;;5044051;28;20454;-78
2022/04/08 03:34:37;;;;;;;6.37;2.37;;;9.00;66.00;;;;;;5034750;28;20482;-78
2022/04/08 03:37:04;;;;;;;15.30;2.00;;;9.00;66.10;;;;;;5048546;28;20420;-78
2022/04/08 03:39:30;;;;;;;10.50;1.87;;;8.90;66.10;;;;;;5051603;28;20431;-80
2022/04/08 03:41:55;;;;;;;4.10;1.60;;;9.00;66.10;;;;;;5043708;28;20419;-78
2022/04/08 03:44:21;;;;;;;4.97;1.30;;;8.90;65.40;;;;;;5053114;28;20264;-76
2022/04/08 03:46:47;;;;;;;3.83;1.83;;;8.90;65.30;;;;;;5055828;28;20204;-78
2022/04/08 03:49:14;;;;;;;3.50;1.83;;;8.90;65.00;;;;;;5037597;28;20185;-78
2022/04/08 03:51:43;;;;;;;5.53;1.40;;;8.90;65.30;;;;;;5041922;28;20423;-78
2022/04/08 03:54:10;;;;;;;5.63;1.60;;;8.90;65.30;;;;;;5046246;28;20592;-77
2022/04/08 03:56:36;;;;;;;4.03;1.70;;;8.90;65.40;;;;;;5039081;28;20420;-77
2022/04/08 03:59:03;;;;;;;5.80;2.30;;;8.90;65.30;;;;;;5043669;28;20498;-78
2022/04/08 04:01:29;;;;;;;5.90;1.73;;;8.90;64.70;;;;;;5049947;28;20466;-78
2022/04/08 04:03:54;;;;;;;3.63;1.80;;;8.90;64.80;;;;;;5043297;28;20432;-78
2022/04/08 04:06:20;;;;;;;1.97;1.53;;;8.80;65.30;;;;;;5044758;28;20221;-78
2022/04/08 04:08:46;;;;;;;3.50;1.60;;;8.90;65.40;;;;;;5043142;28;20192;-78
2022/04/08 04:11:16;;;;;;;5.20;1.30;;;8.90;65.00;;;;;;5045624;28;20215;-78
2022/04/08 04:13:45;;;;;;;8.57;1.80;;;8.90;64.70;;;;;;5047511;28;20531;-79
2022/04/08 04:16:11;;;;;;;6.07;2.00;;;8.80;63.80;;;;;;5037816;28;20461;-79
2022/04/08 04:18:38;;;;;;;3.80;1.73;;;8.80;64.40;;;;;;5040881;28;20423;-78
2022/04/08 04:21:04;;;;;;;4.33;1.63;;;8.90;64.50;;;;;;5033318;28;20415;-78
2022/04/08 04:23:33;;;;;;;4.70;1.80;;;8.80;64.20;;;;;;5031957;28;20439;-78
2022/04/08 04:26:03;;;;;;;5.83;1.80;;;8.80;64.40;;;;;;5031110;28;20459;-78
2022/04/08 04:28:32;;;;;;;5.43;1.90;;;8.80;64.10;;;;;;5031254;28;20439;-78
2022/04/08 04:31:03;;;;;;;6.40;1.73;;;8.80;64.40;;;;;;5037544;28;20440;-80
2022/04/08 04:33:29;;;;;;;6.53;1.80;;;8.80;64.10;;;;;;5036072;28;20498;-78
2022/04/08 04:35:55;;;;;;;3.43;1.20;;;8.80;64.20;;;;;;5034113;28;20964;-79
2022/04/08 04:38:21;;;;;;;6.00;2.23;;;8.80;64.40;;;;;;5039307;28;20423;-77
2022/04/08 04:40:46;;;;;;;5.27;1.80;;;8.80;64.50;;;;;;5041406;28;20258;-78
2022/04/08 04:43:12;;;;;;;6.37;2.00;;;8.80;64.50;;;;;;5033257;28;20423;-76
2022/04/08 04:45:39;;;;;;;4.27;1.63;;;8.80;64.70;;;;;;5037011;28;20212;-76
2022/04/08 04:48:10;;;;;;;5.50;1.73;;;8.80;65.00;;;;;;5037111;28;20208;-78
2022/04/08 04:50:36;;;;;;;4.80;2.00;;;8.70;65.00;;;;;;5031194;28;20470;-78
2022/04/08 04:53:02;;;;;;;6.30;1.70;;;8.70;65.30;;;;;;5036085;28;20923;-78
2022/04/08 04:55:28;;;;;;;6.83;1.60;;;8.80;65.30;;;;;;5035270;28;20815;-77
2022/04/08 04:57:54;;;;;;;4.17;1.90;;;8.70;65.10;;;;;;5038349;28;20442;-77
2022/04/08 05:00:20;;;;;;;4.40;1.70;;;8.70;65.40;;;;;;5042587;28;20426;-78
2022/04/08 05:02:46;;;;;;;7.37;1.73;;;8.70;65.60;;;;;;5036553;28;20930;-78
2022/04/08 05:05:12;;;;;;;2.87;1.50;;;8.70;65.70;;;;;;5041626;28;20944;-77
2022/04/08 05:07:39;;;;;;;5.23;1.77;;;8.80;65.40;;;;;;5033567;28;20432;-78
2022/04/08 05:10:06;;;;;;;3.80;1.70;;;8.80;65.70;;;;;;5035964;28;20424;-77
2022/04/08 05:12:34;;;;;;;6.03;1.90;;;8.80;65.40;;;;;;5039415;28;20485;-77
2022/04/08 05:14:59;;;;;;;7.43;2.00;;;8.90;65.30;;;;;;5033613;28;20480;-78
2022/04/08 05:17:25;;;;;;;3.67;1.80;;;8.90;65.40;;;;;;5034527;28;20424;-77
2022/04/08 05:19:51;;;;;;;4.57;1.87;;;8.90;65.40;;;;;;5037542;28;20184;-77
2022/04/08 05:22:17;;;;;;;4.93;2.33;;;9.00;65.00;;;;;;5046294;28;20185;-78
2022/04/08 05:24:44;;;;;;;8.40;2.27;;;9.00;65.30;;;;;;5039473;28;20227;-77
2022/04/08 05:27:09;;;;;;;3.30;1.70;;;9.00;65.00;;;;;;5040730;28;20422;-77
2022/04/08 05:29:35;;;;;;;3.90;1.53;;;9.00;65.10;;;;;;5031063;28;20428;-78
2022/04/08 05:32:01;;;;;;;6.23;1.73;;;9.00;65.30;;;;;;5033467;28;20853;-78
2022/04/08 05:34:27;;;;;;;4.90;2.00;;;9.00;65.30;;;;;;5031192;28;20219;-78
2022/04/08 05:36:53;;;;;;;4.07;1.67;;;9.00;65.00;;;;;;5034644;28;20184;-79
2022/04/08 05:39:19;;;;;;;8.50;1.70;;;9.10;64.80;;;;;;5042774;28;20961;-78
2022/04/08 05:41:45;;;;;;;10.30;1.80;;;9.10;65.00;;;;;;5037315;28;20430;-78
2022/04/08 05:44:10;;;;;;;4.73;1.93;;;9.00;65.40;;;;;;5037962;28;20185;-78
2022/04/08 05:46:36;;;;;;;3.40;1.50;;;9.00;65.30;;;;;;5040249;28;20181;-77
2022/04/08 05:49:02;;;;;;;7.13;1.70;;;9.00;65.10;;;;;;5038580;28;20189;-78
2022/04/08 05:51:28;;;;;;;5.83;1.73;;;9.00;65.60;;;;;;5037162;28;20447;-79
2022/04/08 05:53:54;;;;;;;3.03;1.87;;;9.00;65.60;;;;;;5041874;28;20304;-77
2022/04/08 05:56:19;;;;;;;6.60;1.60;;;9.00;65.70;;;;;;5032595;28;20522;-77
2022/04/08 05:58:45;;;;;;;4.00;1.90;;;8.90;66.10;;;;;;5034534;28;20479;-78
2022/04/08 06:01:11;;;;;;;8.67;2.40;;;8.80;66.60;;;;;;5033977;28;20220;-77
2022/04/08 06:03:37;;;;;;;11.13;3.20;;;8.90;67.30;;;;;;5043889;28;20713;-77
2022/04/08 06:06:03;;;;;;;5.70;1.90;;;8.90;67.30;;;;;;5043754;28;20290;-79
2022/04/08 06:08:29;;;;;;;6.80;2.00;;;9.00;68.00;;;;;;5041791;28;20185;-76
2022/04/08 06:10:55;;;;;;;7.23;1.80;;;9.10;68.50;;;;;;5037062;28;20435;-77
2022/04/08 06:13:24;;;;;;;5.40;2.17;;;9.10;66.70;;;;;;5043658;28;20196;-79
2022/04/08 06:15:51;;;;;;;4.73;1.73;;;9.00;67.70;;;;;;5040561;28;20276;-79
2022/04/08 06:18:18;;;;;;;9.20;1.63;;;9.00;68.30;;;;;;5040280;28;20466;-77
2022/04/08 06:20:44;;;;;;;4.50;1.60;;;8.90;69.40;;;;;;5044399;28;20492;-78
2022/04/08 06:23:10;;;;;;;3.80;1.90;;;8.80;71.30;;;;;;5037254;28;20478;-78
2022/04/08 06:25:36;;;;;;;5.20;1.93;;;8.60;72.10;;;;;;5034476;28;20448;-78
2022/04/08 06:28:04;;;;;;;4.10;1.60;;;8.40;72.70;;;;;;5035169;28;20548;-78
2022/04/08 06:30:39;;;;;;;5.60;1.90;;;8.60;74.20;;;;;;5037190;28;20220;-77
2022/04/08 06:33:06;;;;;;;7.97;2.10;;;8.50;74.90;;;;;;5039335;28;20458;-77
2022/04/08 06:35:32;;;;;;;2.60;1.50;;;8.40;75.40;;;;;;5040458;28;20562;-78
2022/04/08 06:38:06;;;;;;;6.53;2.73;;;8.40;75.90;;;;;;5036862;28;20424;-78
2022/04/08 06:40:35;;;;;;;4.40;2.00;;;8.30;76.50;;;;;;5031519;28;20972;-79
2022/04/08 06:43:04;;;;;;;5.10;2.30;;;8.20;77.00;;;;;;5040676;28;20428;-77
2022/04/08 06:45:31;;;;;;;3.93;1.83;;;8.20;77.80;;;;;;5033404;28;20454;-78
2022/04/08 06:47:56;;;;;;;3.57;1.60;;;8.30;78.10;;;;;;5041496;28;20442;-78
2022/04/08 06:50:23;;;;;;;6.13;2.13;;;8.30;79.30;;;;;;5040372;28;20911;-77
2022/04/08 06:52:49;;;;;;;6.90;2.20;;;8.40;80.20;;;;;;5035894;28;20451;-77
2022/04/08 06:55:15;;;;;;;3.33;1.67;;;8.40;79.90;;;;;;5036550;28;20499;-78
2022/04/08 06:57:42;;;;;;;5.90;1.87;;;8.30;80.50;;;;;;5035962;28;20531;-78
2022/04/08 07:00:10;;;;;;;6.50;1.60;;;8.20;81.10;;;;;;5040334;28;20451;-78
2022/04/08 07:02:36;;;;;;;5.27;1.50;;;8.20;81.90;;;;;;5035907;28;20428;-74
2022/04/08 07:05:03;;;;;;;3.70;1.70;;;8.00;82.40;;;;;;5040686;28;20458;-75
2022/04/08 07:07:32;;;;;;;2.50;1.63;;;7.90;84.10;;;;;;5033193;28;20536;-74
2022/04/08 07:09:58;;;;;;;9.17;1.83;;;7.90;84.60;;;;;;5037922;28;20427;-75
2022/04/08 07:12:25;;;;;;;5.63;1.40;;;7.70;85.20;;;;;;5030371;28;20843;-74
2022/04/08 07:14:51;;;;;;;4.13;1.50;;;7.70;85.50;;;;;;5032704;28;20479;-74
2022/04/08 07:17:17;;;;;;;3.30;1.30;;;7.60;85.70;;;;;;5032164;28;20828;-74
2022/04/08 07:19:42;;;;;;;5.43;2.13;;;7.60;86.50;;;;;;5037145;28;20648;-75
2022/04/08 07:22:08;;;;;;;4.37;1.90;;;7.50;87.00;;;;;;5032622;28;20287;-75
2022/04/08 07:24:34;;;;;;;5.07;1.80;;;7.50;87.40;;;;;;5032160;28;20692;-75
2022/04/08 07:27:00;;;;;;;2.70;1.70;;;7.40;87.80;;;;;;5031534;28;20212;-76
2022/04/08 07:29:25;;;;;;;6.20;1.93;;;7.50;88.70;;;;;;5036942;28;20227;-75
2022/04/08 07:31:51;;;;;;;3.63;1.67;;;7.40;89.30;;;;;;5032975;28;20661;-74
2022/04/08 07:34:17;;;;;;;5.60;2.13;;;7.40;89.90;;;;;;5032811;28;20209;-75
2022/04/08 07:36:42;;;;;;;5.40;2.37;;;7.40;90.10;;;;;;5032940;28;20181;-75
2022/04/08 07:39:08;;;;;;;3.33;1.40;;;7.20;89.60;;;;;;5042983;28;20635;-75
2022/04/08 07:41:34;;;;;;;2.27;1.67;;;7.10;89.70;;;;;;5034948;28;20181;-75
2022/04/08 07:43:59;;;;;;;4.00;1.60;;;7.00;89.50;;;;;;5033142;28;20189;-76
2022/04/08 07:46:25;;;;;;;1.80;1.43;;;7.10;90.00;;;;;;5035421;28;20201;-75
2022/04/08 07:48:51;;;;;;;2.90;1.83;;;7.10;90.40;;;;;;5038115;28;20184;-76
2022/04/08 07:51:17;;;;;;;8.90;2.23;;;7.10;90.40;;;;;;5034467;28;20443;-75
2022/04/08 07:53:42;;;;;;;3.30;1.63;;;7.20;90.90;;;;;;5032340;28;20263;-76
2022/04/08 07:56:08;;;;;;;5.20;1.70;;;7.30;91.10;;;;;;5037285;28;20243;-75
2022/04/08 07:58:34;;;;;;;5.93;1.63;;;7.40;91.10;;;;;;5034378;28;20182;-75
2022/04/08 08:01:00;;;;;;;4.17;1.90;;;7.40;90.40;;;;;;5038181;28;20185;-76
2022/04/08 08:03:26;;;;;;;6.70;1.80;;;7.40;90.40;;;;;;5030310;28;20216;-75
2022/04/08 08:05:53;;;;;;;6.00;2.77;;;7.40;90.10;;;;;;5040641;28;20205;-76
2022/04/08 08:08:20;;;;;;;7.43;2.80;;;7.50;90.70;;;;;;5042388;28;20419;-76
2022/04/08 08:10:46;;;;;;;6.30;2.47;;;7.60;91.00;;;;;;5031023;28;21009;-76
2022/04/08 08:13:12;;;;;;;5.53;2.33;;;7.70;91.00;;;;;;5029374;28;20473;-75
2022/04/08 08:15:40;;;;;;;7.23;2.60;;;7.80;91.10;;;;;;5028304;28;20524;-74
2022/04/08 08:18:07;;;;;;;4.37;2.00;;;7.90;90.90;;;;;;5032148;28;20424;-75
2022/04/08 08:20:33;;;;;;;6.20;2.50;;;7.90;90.70;;;;;;5033211;28;20424;-73
2022/04/08 08:22:59;;;;;;;3.40;1.80;;;7.90;90.60;;;;;;5030841;28;20774;-76
2022/04/08 08:25:25;;;;;;;4.10;1.80;;;7.70;89.00;;;;;;5030341;28;20811;-74
2022/04/08 08:27:56;;;;;;;8.23;2.60;;;7.80;90.40;;;;;;5036226;28;20235;-75
2022/04/08 08:30:22;;;;;;;3.20;1.60;;;7.90;90.10;;;;;;5034200;28;20926;-75
2022/04/08 08:32:49;;;;;;;4.40;1.40;;;7.90;90.50;;;;;;5032890;28;20984;-76
2022/04/08 08:35:19;;;;;;;2.57;1.40;;;7.90;89.90;;;;;;5036988;28;21022;-74
2022/04/08 08:37:45;;;;;;;2.23;1.50;;;7.80;90.40;;;;;;5033737;28;20427;-77
2022/04/08 08:40:12;;;;;;;4.10;1.57;;;7.90;90.70;;;;;;5039473;28;20791;-78
2022/04/08 08:42:39;;;;;;;1.90;1.20;;;7.80;89.70;;;;;;5035245;28;20412;-77
2022/04/08 08:45:06;;;;;;;2.97;1.30;;;7.80;89.60;;;;;;5034661;28;20442;-77
2022/04/08 08:47:32;;;;;;;2.17;1.40;;;7.80;90.40;;;;;;5028616;28;20942;-79
2022/04/08 08:49:59;;;;;;;2.50;1.17;;;7.90;90.80;;;;;;5035382;28;20435;-75
2022/04/08 08:52:25;;;;;;;4.33;1.70;;;8.00;90.90;;;;;;5038735;28;20430;-77
2022/04/08 08:54:51;;;;;;;1.70;1.10;;;8.00;90.60;;;;;;5033085;28;20557;-77
2022/04/08 08:57:19;;;;;;;3.07;1.43;;;8.00;89.90;;;;;;5030656;28;20854;-77
2022/04/08 08:59:45;;;;;;;2.90;1.27;;;8.00;90.00;;;;;;5039591;28;20757;-77
2022/04/08 09:02:16;;;;;;;3.13;1.50;;;8.00;90.00;;;;;;5031915;28;20570;-76
2022/04/08 09:04:42;;;;;;;6.60;1.40;;;8.00;90.30;;;;;;5039742;28;20804;-77
2022/04/08 09:07:21;;;;;;;23.03;8.07;;;8.10;90.50;;;;;;5035602;28;20681;-78
2022/04/08 09:09:54;;;;;;;6.40;2.77;;;8.10;90.50;;;;;;5035164;28;20470;-78
2022/04/08 09:12:24;;;;;;;3.23;1.53;;;8.30;90.90;;;;;;5038072;28;20423;-77
2022/04/08 09:14:52;;;;;;;4.90;1.90;;;8.30;90.30;;;;;;5038918;28;20471;-77
2022/04/08 09:17:18;;;;;;;3.40;1.87;;;8.20;90.60;;;;;;5030883;28;20435;-77
2022/04/08 09:19:48;;;;;;;2.97;1.43;;;8.20;91.10;;;;;;5034647;28;20451;-75
2022/04/08 09:22:15;;;;;;;1.97;1.53;;;8.40;91.30;;;;;;5041666;28;20416;-77
2022/04/08 09:24:40;;;;;;;11.60;1.70;;;8.50;91.20;;;;;;5038488;28;20448;-77
2022/04/08 09:27:06;;;;;;;2.60;1.53;;;8.50;90.70;;;;;;5039077;28;20650;-75
2022/04/08 09:29:34;;;;;;;6.83;1.73;;;8.40;90.70;;;;;;5039519;28;20206;-77
2022/04/08 09:32:07;;;;;;;2.17;1.20;;;8.40;90.80;;;;;;5032865;28;20640;-75
2022/04/08 09:34:33;;;;;;;1.60;1.10;;;8.20;90.00;;;;;;5032324;28;20474;-75
2022/04/08 09:37:04;;;;;;;2.23;1.30;;;8.10;90.30;;;;;;5033851;28;20420;-77
2022/04/08 09:39:30;;;;;;;2.03;0.93;;;8.00;90.50;;;;;;5042706;28;20182;-76
2022/04/08 09:41:56;;;;;;;3.30;1.53;;;8.00;90.60;;;;;;5037042;28;20437;-76
2022/04/08 09:44:26;;;;;;;2.47;1.10;;;8.00;90.80;;;;;;5037018;28;20706;-76
2022/04/08 09:46:52;;;;;;;3.73;1.20;;;8.00;90.50;;;;;;5039262;28;20490;-76
2022/04/08 09:49:18;;;;;;;2.83;1.50;;;7.90;90.40;;;;;;5033645;28;20438;-76
2022/04/08 09:51:50;;;;;;;2.17;1.23;;;7.90;91.00;;;;;;5037725;28;20432;-76
2022/04/08 09:54:20;;;;;;;1.40;1.33;;;7.80;90.80;;;;;;5035842;28;20866;-77
2022/04/08 09:56:45;;;;;;;1.40;1.03;;;7.70;91.10;;;;;;5033585;28;20424;-77
2022/04/08 09:59:14;;;;;;;1.87;1.00;;;7.70;91.20;;;;;;5044412;28;20427;-76
2022/04/08 10:01:44;;;;;;;1.67;0.93;;;7.60;91.10;;;;;;5045993;28;20217;-76
2022/04/08 10:04:11;;;;;;;2.53;1.07;;;7.70;91.30;;;;;;5036185;28;20885;-77
2022/04/08 10:06:42;;;;;;;3.27;1.00;;;7.80;91.10;;;;;;5025518;28;20435;-77
2022/04/08 10:09:10;;;;;;;2.30;1.40;;;7.90;91.10;;;;;;5033167;28;20431;-76
2022/04/08 10:12:06;;;;;;;3.13;1.23;;;8.00;91.20;;;;;;5035870;28;20485;-76
2022/04/08 10:14:59;;;;;;;1.20;0.90;;;8.10;90.40;;;;;;5034892;28;20541;-77
2022/04/08 10:17:24;;;;;;;6.20;1.40;;;8.20;88.60;;;;;;5031494;28;20423;-76
2022/04/08 10:19:50;;;;;;;1.93;1.17;;;8.20;88.70;;;;;;5032794;28;20470;-76
2022/04/08 10:22:20;;;;;;;1.67;1.00;;;8.20;88.40;;;;;;5031773;28;20660;-76
2022/04/08 10:24:56;;;;;;;2.10;1.17;;;8.20;88.30;;;;;;5035845;28;20209;-76
2022/04/08 10:27:38;;;;;;;1.63;1.37;;;8.40;87.40;;;;;;5041344;28;20431;-76
2022/04/08 10:30:15;;;;;;;2.77;1.13;;;8.50;87.80;;;;;;5037531;28;20424;-76
2022/04/08 10:32:43;;;;;;;2.13;1.00;;;8.60;87.70;;;;;;5037754;28;20416;-78
2022/04/08 10:35:13;;;;;;;1.83;1.30;;;8.70;87.60;;;;;;5033481;28;20484;-77
2022/04/08 10:37:39;;;;;;;3.20;1.50;;;8.50;86.80;;;;;;5034691;28;20526;-78
2022/04/08 10:40:10;;;;;;;2.23;1.30;;;8.60;87.60;;;;;;5044217;28;20514;-78
2022/04/08 10:42:36;;;;;;;1.70;1.20;;;8.60;87.70;;;;;;5033178;28;20193;-79
2022/04/08 10:45:13;;;;;;;1.50;1.07;;;8.70;87.60;;;;;;5036508;28;20505;-78
2022/04/08 10:47:47;;;;;;;1.83;1.10;;;8.50;86.80;;;;;;5041170;28;20207;-79
2022/04/08 10:50:33;;;;;;;1.43;1.00;;;8.50;87.80;;;;;;5040977;28;20491;-80
2022/04/08 10:53:13;;;;;;;3.50;1.50;;;8.50;88.60;;;;;;5033441;28;20514;-79
2022/04/08 10:55:56;;;;;;;2.30;1.00;;;8.50;87.80;;;;;;5034309;28;20475;-79
2022/04/08 10:58:51;;;;;;;1.70;1.33;;;8.40;85.90;;;;;;5037686;28;20419;-78
2022/04/08 11:01:18;;;;;;;1.30;1.10;;;8.50;87.60;;;;;;4994751;28;20420;-77
2022/04/08 11:03:52;;;;;;;1.20;1.00;;;8.60;88.10;;;;;;4995361;28;20431;-76
2022/04/08 11:06:19;;;;;;;1.27;1.10;;;8.70;87.70;;;;;;5010589;28;20449;-79
2022/04/08 11:08:45;;;;;;;2.10;1.10;;;8.60;86.20;;;;;;5010388;28;20927;-78
2022/04/08 11:11:11;;;;;;;7.10;1.50;;;8.60;86.60;;;;;;4996001;28;20421;-77
2022/04/08 11:13:41;;;;;;;3.13;1.70;;;8.60;87.60;;;;;;5017770;28;20444;-77
2022/04/08 11:16:08;;;;;;;2.50;1.10;;;8.20;87.10;;;;;;5012603;28;20451;-79
2022/04/08 11:18:34;;;;;;;2.47;1.60;;;7.90;87.80;;;;;;4995364;28;20421;-78
2022/04/08 11:21:00;;;;;;;3.00;1.50;;;8.10;89.50;;;;;;4999862;28;20463;-78
2022/04/08 11:23:35;;;;;;;2.73;1.50;;;8.10;89.60;;;;;;5011862;28;20495;-78
2022/04/08 11:26:10;;;;;;;2.60;1.50;;;7.90;90.20;;;;;;5012014;28;20432;-78
2022/04/08 11:28:35;;;;;;;1.27;1.00;;;7.80;90.40;;;;;;5015088;28;20919;-78
2022/04/08 11:31:01;;;;;;;2.23;1.40;;;7.90;90.00;;;;;;5010444;28;20542;-77
2022/04/08 11:33:31;;;;;;;3.30;1.30;;;7.90;90.40;;;;;;5015272;28;20218;-76
2022/04/08 11:36:00;;;;;;;2.93;1.87;;;8.10;90.70;;;;;;5011253;28;20292;-77
2022/04/08 11:38:28;;;;;;;2.33;1.30;;;8.10;90.20;;;;;;5028104;28;20432;-78
2022/04/08 11:40:54;;;;;;;3.27;1.60;;;8.30;90.30;;;;;;5035888;28;21021;-78
2022/04/08 11:43:21;;;;;;;2.07;1.30;;;8.40;90.10;;;;;;5031270;28;20432;-77
2022/04/08 11:45:49;;;;;;;2.63;1.70;;;8.30;90.20;;;;;;5029996;28;20448;-78
2022/04/08 11:48:20;;;;;;;2.60;1.77;;;8.00;90.70;;;;;;5035207;28;20442;-78
2022/04/08 11:50:48;;;;;;;2.83;1.63;;;8.00;91.50;;;;;;5027008;28;20471;-77
2022/04/08 11:53:15;;;;;;;3.30;1.30;;;8.10;92.00;;;;;;5037571;28;20412;-76
2022/04/08 11:55:59;;;;;;;6.20;1.87;;;7.90;91.10;;;;;;5038199;28;20541;-77
2022/04/08 11:58:27;;;;;;;3.87;2.33;;;7.90;91.50;;;;;;5031475;28;20423;-78
2022/04/08 12:00:53;;;;;;;2.40;1.70;;;8.00;91.70;;;;;;5030008;28;20422;-77
2022/04/08 12:03:30;;;;;;;3.63;1.40;;;8.10;92.20;;;;;;5033012;28;20422;-77
2022/04/08 12:05:58;;;;;;;1.87;1.40;;;8.20;91.90;;;;;;5032514;28;20495;-76
2022/04/08 12:08:24;;;;;;;4.67;1.60;;;8.20;91.70;;;;;;5032195;28;20428;-76
2022/04/08 12:10:52;;;;;;;2.30;1.60;;;8.30;91.90;;;;;;5031975;28;20420;-75
2022/04/08 12:13:23;;;;;;;2.87;1.80;;;8.30;91.50;;;;;;5039811;28;20423;-77
2022/04/08 12:15:52;;;;;;;4.97;2.90;;;8.00;91.40;;;;;;5032445;28;21011;-78
2022/04/08 12:18:32;;;;;;;6.80;3.13;;;7.80;92.10;;;;;;5039026;28;20558;-76
2022/04/08 12:21:00;;;;;;;5.07;3.30;;;7.60;92.80;;;;;;5030896;28;20423;-76
2022/04/08 12:23:27;;;;;;;4.13;2.77;;;7.70;93.40;;;;;;5031150;28;21202;-78
2022/04/08 12:25:56;;;;;;;3.93;2.67;;;7.70;93.50;;;;;;5031583;28;20475;-77
2022/04/08 12:28:29;;;;;;;7.30;2.93;;;7.70;93.70;;;;;;5033352;28;20954;-79
2022/04/08 12:30:54;;;;;;;5.07;2.33;;;7.70;93.80;;;;;;5025915;28;20498;-76
2022/04/08 12:33:20;;;;;;;6.10;3.83;;;7.70;94.00;;;;;;5031004;28;20835;-78
2022/04/08 12:35:47;;;;;;;4.87;2.47;;;7.70;94.00;;;;;;5032353;28;20213;-77
2022/04/08 12:38:19;;;;;;;4.37;2.00;;;7.40;93.60;;;;;;5033950;28;20218;-78
2022/04/08 12:40:49;;;;;;;5.60;2.00;;;7.30;94.10;;;;;;5034170;28;20463;-77
2022/04/08 12:43:15;;;;;;;3.70;1.93;;;7.20;94.30;;;;;;5036748;28;20966;-77
2022/04/08 12:45:41;;;;;;;3.37;2.00;;;7.10;94.70;;;;;;5030505;28;20451;-77
2022/04/08 12:48:07;;;;;;;4.50;2.23;;;7.10;95.00;;;;;;5035287;28;20451;-79
2022/04/08 12:50:33;;;;;;;3.97;2.30;;;7.30;95.40;;;;;;5035025;28;20447;-77
2022/04/08 12:53:00;;;;;;;5.23;2.40;;;7.50;95.30;;;;;;5035907;28;20431;-77
2022/04/08 12:55:26;;;;;;;3.17;2.20;;;7.80;95.20;;;;;;5041863;28;20474;-78
2022/04/08 12:57:52;;;;;;;3.03;2.13;;;7.90;94.70;;;;;;5036587;28;20913;-77